19:11
Airports
History
Links
Donate
Help keep this website running!
PayPal
Bitcoin
This page is community maintained. The information is intended for PC simulator navigation or reference.
Always use approved charts for navigation.
EDHM
Hartenholm
Hartenholm (EDHM)
Hasenmoor, Schleswig-Holstein, Germany (24640)
(U)
Lat/Lng:53° 54' 53.96" N / 10° 2' 26.03" E
53.91499 / 10.040564
Elevation:108'ft / 33mMSL
ID / ICAO:EDHM
Runways:1
Longest:05-23
Asphalt 499m / 1,637ft
Nearby Weather18:50 GMT 2017-12-11
Nearby weather at EDDH, Hamburg located 19.4 nautical miles from EDHM
Altimeter: 29.03
Visibility: 3.1 statute miles
Wind: 5 knots (from 060°)
Temp: 0°c / 32°f
Humidity: %

METAR: EDDH 111850Z 06005KT 5000 -SG BR BKN006 00/00 Q0983 R05/650295 R15/650295 TEMPO 3500 -SNRA

(Powered by phpweather)
Nearby VORs <50NM
Nearby NDBs
Runway 05 / 23
Dimensions:498.9 x 14.9m 1637' x 49'ft
Surface:Asphalt
Runway 05 [A]Runway 23 [B]
Heading:052°TH 232°TH
Lat:
Lng:
53° 54' 49.03"N
10° 2' 14.92"E
53° 54' 58.89"N
10° 2' 37.14"E
User Notes and Comments
53° 54' 53.96" N / 10° 2' 26.03" E
Distance To
Airport ID:
Nearby Airports
(C) Wahlstedt 8.3 NM
EDHW ENE 62°
(C) Neumuenster 11.9 NM
EDHN NNW 339°
(C) Ahrenlohe 19.1 NM
EDHO SW 219°
(C) Hamburg 19.4 NM
EDDH ( WX ) S 187°
(C) Hungriger Wolf 19.7 NM
EDHF WNW 285°
(C) Uetersen 23.1 NM
EDHE SW 216°
(C) Hamburg Finkenwerder 27.5 NM
EDHI ( WX ) SSW 197°
VFR Chart
Flight Planning at SkyVector.com